SANT/TUC METAR and TAF weather

Enter ICAO airport designator
Station Type Date Time Source
SANT METAR 2020/04/04 21:00 UTC NOAA

SANT 042100Z 00000KT 9999 SCT040 BKN045 24/18 Q1008


Station Type Date Time Source
SANT Decoded METAR 2020/04/04 21:00 UTC NOAA

Tucuman Aerodrome, Argentina (SANT) 26-51S 065-06W 450M
Apr 04, 2020 - 05:00 PM EDT / 2020.04.04 2100 UTC
Wind: Calm:0
Visibility: greater than 7 mile(s):0
Sky conditions: mostly cloudy
Temperature: 75 F (24 C)
Dew Point: 64 F (18 C)
Relative Humidity: 69%
Pressure (altimeter): 29.77 in. Hg (1008 hPa)
ob: SANT 042100Z 00000KT 9999 SCT040 BKN045 24/18 Q1008
cycle: 21

Station Type Date Time Source
SANT TAF 2020/04/04 18:09 UTC NOAA

TAF TAF SANT 041700Z 0418/0518 18005KT 9999 BKN035 TX27/0518Z TN14/0510Z
BECMG 0421/0424 07005KT 9999 SCT030 PROB40 0507/0510 VRB03KT 5000 BR SCT010 BKN020
BECMG 0513/0516 9999 NSW SCT010 BKN020

Example: see airport list